<?xml version="1.0" encoding="UTF-8" standalone="no" ?><gpx xmlns="http://www.topografix.com/GPX/1/1" xmlns:gpxx="http://www.garmin.com/xmlschemas/GpxExtensions/v3" xmlns:wptx1="http://www.garmin.com/xmlschemas/WaypointExtension/v1" xmlns:gpxtpx="http://www.garmin.com/xmlschemas/TrackPointExtension/v1" creator="GuideVTT.com" version="1.1" xmlns:xsi="http://www.w3.org/2001/XMLSchema-instance" xsi:schemaLocation="http://www.topografix.com/GPX/1/1 http://www.topografix.com/GPX/1/1/gpx.xsd http://www.garmin.com/xmlschemas/GpxExtensions/v3 http://www8.garmin.com/xmlschemas/GpxExtensionsv3.xsd http://www.garmin.com/xmlschemas/WaypointExtension/v1 http://www8.garmin.com/xmlschemas/WaypointExtensionv1.xsd http://www.garmin.com/xmlschemas/TrackPointExtension/v1 http://www.garmin.com/xmlschemas/TrackPointExtensionv1.xsd">
<metadata><link href="http://www.garmin.com"><text>Garmin International</text></link><time>2013-06-22T15:13:50Z</time></metadata>
<trk><name>vtt_2014-07-17_55c0bf6b6cc1ce63fa033314.gpx</name><extensions><gpxx:TrackExtension><gpxx:DisplayColor>Cyan</gpxx:DisplayColor></gpxx:TrackExtension></extensions><trkseg>
<trkpt lat="48.878993988037" lon="2.8556110858917"><ele></ele><time>2025-5-6T15:42:48Z</time></trkpt>
<trkpt lat="48.878993988037" lon="2.8556039333344"><ele></ele><time>2025-5-6T15:42:51Z</time></trkpt>
<trkpt lat="48.879001617432" lon="2.8555800914764"><ele></ele><time>2025-5-6T15:42:54Z</time></trkpt>
<trkpt lat="48.879016876221" lon="2.8555338382721"><ele></ele><time>2025-5-6T15:42:57Z</time></trkpt>
<trkpt lat="48.87903213501" lon="2.8554992675781"><ele></ele><time>2025-5-6T15:43:0Z</time></trkpt>
<trkpt lat="48.879043579102" lon="2.8554737567902"><ele></ele><time>2025-5-6T15:43:3Z</time></trkpt>
<trkpt lat="48.879058837891" lon="2.8554441928864"><ele></ele><time>2025-5-6T15:43:6Z</time></trkpt>
<trkpt lat="48.879070281982" lon="2.855414390564"><ele></ele><time>2025-5-6T15:43:9Z</time></trkpt>
<trkpt lat="48.879085540771" lon="2.8553857803345"><ele></ele><time>2025-5-6T15:43:12Z</time></trkpt>
<trkpt lat="48.879100799561" lon="2.8553473949432"><ele></ele><time>2025-5-6T15:43:15Z</time></trkpt>
<trkpt lat="48.879119873047" lon="2.8553085327148"><ele></ele><time>2025-5-6T15:43:18Z</time></trkpt>
<trkpt lat="48.879138946533" lon="2.8552675247192"><ele></ele><time>2025-5-6T15:43:21Z</time></trkpt>
<trkpt lat="48.879154205322" lon="2.8552217483521"><ele></ele><time>2025-5-6T15:43:24Z</time></trkpt>
<trkpt lat="48.879173278809" lon="2.8551776409149"><ele></ele><time>2025-5-6T15:43:27Z</time></trkpt>
<trkpt lat="48.879192352295" lon="2.8551352024078"><ele></ele><time>2025-5-6T15:43:30Z</time></trkpt>
<trkpt lat="48.879211425781" lon="2.8550925254822"><ele></ele><time>2025-5-6T15:43:33Z</time></trkpt>
<trkpt lat="48.879234313965" lon="2.855046749115"><ele></ele><time>2025-5-6T15:43:36Z</time></trkpt>
<trkpt lat="48.879257202148" lon="2.8550009727478"><ele></ele><time>2025-5-6T15:43:39Z</time></trkpt>
<trkpt lat="48.879276275635" lon="2.854957818985"><ele></ele><time>2025-5-6T15:43:42Z</time></trkpt>
<trkpt lat="48.879295349121" lon="2.8549039363861"><ele></ele><time>2025-5-6T15:43:45Z</time></trkpt>
<trkpt lat="48.879314422607" lon="2.8548610210419"><ele></ele><time>2025-5-6T15:43:48Z</time></trkpt>
<trkpt lat="48.879333496094" lon="2.8548197746277"><ele></ele><time>2025-5-6T15:43:51Z</time></trkpt>
<trkpt lat="48.87935256958" lon="2.8547823429108"><ele></ele><time>2025-5-6T15:43:54Z</time></trkpt>
<trkpt lat="48.879371643066" lon="2.8547415733337"><ele></ele><time>2025-5-6T15:43:57Z</time></trkpt>
<trkpt lat="48.879390716553" lon="2.8546969890594"><ele></ele><time>2025-5-6T15:44:0Z</time></trkpt>
<trkpt lat="48.879413604736" lon="2.8546485900879"><ele></ele><time>2025-5-6T15:44:3Z</time></trkpt>
<trkpt lat="48.87943649292" lon="2.8546035289764"><ele></ele><time>2025-5-6T15:44:6Z</time></trkpt>
<trkpt lat="48.879455566406" lon="2.8545587062836"><ele></ele><time>2025-5-6T15:44:9Z</time></trkpt>
<trkpt lat="48.87947845459" lon="2.8545157909393"><ele></ele><time>2025-5-6T15:44:12Z</time></trkpt>
<trkpt lat="48.879497528076" lon="2.854471206665"><ele></ele><time>2025-5-6T15:44:15Z</time></trkpt>
<trkpt lat="48.87952041626" lon="2.8544244766235"><ele></ele><time>2025-5-6T15:44:18Z</time></trkpt>
<trkpt lat="48.879543304443" lon="2.854377746582"><ele></ele><time>2025-5-6T15:44:21Z</time></trkpt>
<trkpt lat="48.879566192627" lon="2.8543312549591"><ele></ele><time>2025-5-6T15:44:24Z</time></trkpt>
<trkpt lat="48.879589080811" lon="2.8542840480804"><ele></ele><time>2025-5-6T15:44:27Z</time></trkpt>
<trkpt lat="48.879615783691" lon="2.854236125946"><ele></ele><time>2025-5-6T15:44:30Z</time></trkpt>
<trkpt lat="48.879638671875" lon="2.8541874885559"><ele></ele><time>2025-5-6T15:44:33Z</time></trkpt>
<trkpt lat="48.879665374756" lon="2.8541436195374"><ele></ele><time>2025-5-6T15:44:36Z</time></trkpt>
<trkpt lat="48.879703521729" lon="2.8541347980499"><ele></ele><time>2025-5-6T15:44:39Z</time></trkpt>
<trkpt lat="48.879734039307" lon="2.8541352748871"><ele></ele><time>2025-5-6T15:44:42Z</time></trkpt>
<trkpt lat="48.879768371582" lon="2.8541440963745"><ele></ele><time>2025-5-6T15:44:45Z</time></trkpt>
<trkpt lat="48.87979888916" lon="2.8541555404663"><ele></ele><time>2025-5-6T15:44:48Z</time></trkpt>
<trkpt lat="48.879833221436" lon="2.8541672229767"><ele></ele><time>2025-5-6T15:44:51Z</time></trkpt>
<trkpt lat="48.879863739014" lon="2.8541853427887"><ele></ele><time>2025-5-6T15:44:54Z</time></trkpt>
<trkpt lat="48.879894256592" lon="2.8542084693909"><ele></ele><time>2025-5-6T15:44:57Z</time></trkpt>
<trkpt lat="48.879928588867" lon="2.854238986969"><ele></ele><time>2025-5-6T15:45:0Z</time></trkpt>
<trkpt lat="48.879962921143" lon="2.8542788028717"><ele></ele><time>2025-5-6T15:45:3Z</time></trkpt>
<trkpt lat="48.880001068115" lon="2.8543169498444"><ele></ele><time>2025-5-6T15:45:6Z</time></trkpt>
<trkpt lat="48.880039215088" lon="2.8543546199799"><ele></ele><time>2025-5-6T15:45:9Z</time></trkpt>
<trkpt lat="48.880073547363" lon="2.8544023036957"><ele></ele><time>2025-5-6T15:45:12Z</time></trkpt>
<trkpt lat="48.880107879639" lon="2.8544497489929"><ele></ele><time>2025-5-6T15:45:15Z</time></trkpt>
<trkpt lat="48.880142211914" lon="2.8544936180115"><ele></ele><time>2025-5-6T15:45:18Z</time></trkpt>
<trkpt lat="48.880176544189" lon="2.8545277118683"><ele></ele><time>2025-5-6T15:45:21Z</time></trkpt>
<trkpt lat="48.880214691162" lon="2.8545625209808"><ele></ele><time>2025-5-6T15:45:24Z</time></trkpt>
<trkpt lat="48.880252838135" lon="2.854599237442"><ele></ele><time>2025-5-6T15:45:27Z</time></trkpt>
<trkpt lat="48.880290985107" lon="2.8546366691589"><ele></ele><time>2025-5-6T15:45:30Z</time></trkpt>
<trkpt lat="48.880332946777" lon="2.8546769618988"><ele></ele><time>2025-5-6T15:45:33Z</time></trkpt>
<trkpt lat="48.88037109375" lon="2.8547158241272"><ele></ele><time>2025-5-6T15:45:36Z</time></trkpt>
<trkpt lat="48.880409240723" lon="2.8547523021698"><ele></ele><time>2025-5-6T15:45:39Z</time></trkpt>
<trkpt lat="48.880443572998" lon="2.8547949790955"><ele></ele><time>2025-5-6T15:45:42Z</time></trkpt>
<trkpt lat="48.880474090576" lon="2.8548448085785"><ele></ele><time>2025-5-6T15:45:45Z</time></trkpt>
<trkpt lat="48.880493164062" lon="2.8549070358276"><ele></ele><time>2025-5-6T15:45:48Z</time></trkpt>
<trkpt lat="48.880493164062" lon="2.8549704551697"><ele></ele><time>2025-5-6T15:45:51Z</time></trkpt>
<trkpt lat="48.880477905273" lon="2.8550372123718"><ele></ele><time>2025-5-6T15:45:54Z</time></trkpt>
<trkpt lat="48.88045501709" lon="2.8551063537598"><ele></ele><time>2025-5-6T15:45:57Z</time></trkpt>
<trkpt lat="48.880428314209" lon="2.8551721572876"><ele></ele><time>2025-5-6T15:46:0Z</time></trkpt>
<trkpt lat="48.880397796631" lon="2.8552346229553"><ele></ele><time>2025-5-6T15:46:3Z</time></trkpt>
<trkpt lat="48.880363464355" lon="2.8553011417389"><ele></ele><time>2025-5-6T15:46:6Z</time></trkpt>
<trkpt lat="48.880332946777" lon="2.8553681373596"><ele></ele><time>2025-5-6T15:46:9Z</time></trkpt>
<trkpt lat="48.880298614502" lon="2.8554310798645"><ele></ele><time>2025-5-6T15:46:12Z</time></trkpt>
<trkpt lat="48.880268096924" lon="2.8554937839508"><ele></ele><time>2025-5-6T15:46:15Z</time></trkpt>
<trkpt lat="48.880237579346" lon="2.8555526733398"><ele></ele><time>2025-5-6T15:46:18Z</time></trkpt>
<trkpt lat="48.880207061768" lon="2.8556056022644"><ele></ele><time>2025-5-6T15:46:21Z</time></trkpt>
<trkpt lat="48.880180358887" lon="2.8556563854218"><ele></ele><time>2025-5-6T15:46:24Z</time></trkpt>
<trkpt lat="48.880153656006" lon="2.8557064533234"><ele></ele><time>2025-5-6T15:46:27Z</time></trkpt>
<trkpt lat="48.880126953125" lon="2.855758190155"><ele></ele><time>2025-5-6T15:46:30Z</time></trkpt>
<trkpt lat="48.880100250244" lon="2.8558123111725"><ele></ele><time>2025-5-6T15:46:33Z</time></trkpt>
<trkpt lat="48.880081176758" lon="2.8558707237244"><ele></ele><time>2025-5-6T15:46:36Z</time></trkpt>
<trkpt lat="48.880065917969" lon="2.8559291362762"><ele></ele><time>2025-5-6T15:46:39Z</time></trkpt>
<trkpt lat="48.880058288574" lon="2.8559868335724"><ele></ele><time>2025-5-6T15:46:42Z</time></trkpt>
<trkpt lat="48.880054473877" lon="2.8560419082642"><ele></ele><time>2025-5-6T15:46:45Z</time></trkpt>
<trkpt lat="48.880054473877" lon="2.8560945987701"><ele></ele><time>2025-5-6T15:46:48Z</time></trkpt>
<trkpt lat="48.880065917969" lon="2.8561415672302"><ele></ele><time>2025-5-6T15:46:51Z</time></trkpt>
<trkpt lat="48.880073547363" lon="2.8561887741089"><ele></ele><time>2025-5-6T15:46:54Z</time></trkpt>
<trkpt lat="48.880088806152" lon="2.8562331199646"><ele></ele><time>2025-5-6T15:46:57Z</time></trkpt>
<trkpt lat="48.880104064941" lon="2.8562774658203"><ele></ele><time>2025-5-6T15:47:0Z</time></trkpt>
<trkpt lat="48.880126953125" lon="2.8563187122345"><ele></ele><time>2025-5-6T15:47:3Z</time></trkpt>
<trkpt lat="48.880157470703" lon="2.8563528060913"><ele></ele><time>2025-5-6T15:47:6Z</time></trkpt>
<trkpt lat="48.880195617676" lon="2.8563776016235"><ele></ele><time>2025-5-6T15:47:9Z</time></trkpt>
<trkpt lat="48.880237579346" lon="2.856369972229"><ele></ele><time>2025-5-6T15:47:12Z</time></trkpt>
<trkpt lat="48.88028717041" lon="2.8563506603241"><ele></ele><time>2025-5-6T15:47:15Z</time></trkpt>
<trkpt lat="48.880332946777" lon="2.8563268184662"><ele></ele><time>2025-5-6T15:47:18Z</time></trkpt>
<trkpt lat="48.880382537842" lon="2.8563001155853"><ele></ele><time>2025-5-6T15:47:21Z</time></trkpt>
<trkpt lat="48.880432128906" lon="2.8562664985657"><ele></ele><time>2025-5-6T15:47:24Z</time></trkpt>
<trkpt lat="48.880477905273" lon="2.8562276363373"><ele></ele><time>2025-5-6T15:47:27Z</time></trkpt>
<trkpt lat="48.880527496338" lon="2.856187582016"><ele></ele><time>2025-5-6T15:47:30Z</time></trkpt>
<trkpt lat="48.880569458008" lon="2.8561472892761"><ele></ele><time>2025-5-6T15:47:33Z</time></trkpt>
<trkpt lat="48.88060760498" lon="2.8561127185822"><ele></ele><time>2025-5-6T15:47:36Z</time></trkpt>
<trkpt lat="48.880645751953" lon="2.856077671051"><ele></ele><time>2025-5-6T15:47:39Z</time></trkpt>
<trkpt lat="48.880680084229" lon="2.8560397624969"><ele></ele><time>2025-5-6T15:47:42Z</time></trkpt>
<trkpt lat="48.880714416504" lon="2.8560059070587"><ele></ele><time>2025-5-6T15:47:45Z</time></trkpt>
<trkpt lat="48.880748748779" lon="2.8559741973877"><ele></ele><time>2025-5-6T15:47:48Z</time></trkpt>
<trkpt lat="48.880786895752" lon="2.8559396266937"><ele></ele><time>2025-5-6T15:47:51Z</time></trkpt>
<trkpt lat="48.880825042725" lon="2.8559069633484"><ele></ele><time>2025-5-6T15:47:54Z</time></trkpt>
<trkpt lat="48.880867004395" lon="2.855872631073"><ele></ele><time>2025-5-6T15:47:57Z</time></trkpt>
<trkpt lat="48.880912780762" lon="2.8558428287506"><ele></ele><time>2025-5-6T15:48:0Z</time></trkpt>
<trkpt lat="48.880954742432" lon="2.8558156490326"><ele></ele><time>2025-5-6T15:48:3Z</time></trkpt>
<trkpt lat="48.880992889404" lon="2.8557865619659"><ele></ele><time>2025-5-6T15:48:6Z</time></trkpt>
<trkpt lat="48.881034851074" lon="2.855758190155"><ele></ele><time>2025-5-6T15:48:9Z</time></trkpt>
<trkpt lat="48.881076812744" lon="2.8557298183441"><ele></ele><time>2025-5-6T15:48:12Z</time></trkpt>
<trkpt lat="48.881118774414" lon="2.8556978702545"><ele></ele><time>2025-5-6T15:48:15Z</time></trkpt>
<trkpt lat="48.881160736084" lon="2.8556749820709"><ele></ele><time>2025-5-6T15:48:18Z</time></trkpt>
<trkpt lat="48.881202697754" lon="2.8556535243988"><ele></ele><time>2025-5-6T15:48:21Z</time></trkpt>
<trkpt lat="48.881244659424" lon="2.8556346893311"><ele></ele><time>2025-5-6T15:48:24Z</time></trkpt>
<trkpt lat="48.881290435791" lon="2.8556137084961"><ele></ele><time>2025-5-6T15:48:27Z</time></trkpt>
<trkpt lat="48.881332397461" lon="2.8555936813354"><ele></ele><time>2025-5-6T15:48:30Z</time></trkpt>
<trkpt lat="48.881370544434" lon="2.8555743694305"><ele></ele><time>2025-5-6T15:48:33Z</time></trkpt>
<trkpt lat="48.881412506104" lon="2.8555514812469"><ele></ele><time>2025-5-6T15:48:36Z</time></trkpt>
<trkpt lat="48.881454467773" lon="2.8555269241333"><ele></ele><time>2025-5-6T15:48:39Z</time></trkpt>
<trkpt lat="48.881496429443" lon="2.8554978370667"><ele></ele><time>2025-5-6T15:48:42Z</time></trkpt>
<trkpt lat="48.881538391113" lon="2.8554682731628"><ele></ele><time>2025-5-6T15:48:45Z</time></trkpt>
<trkpt lat="48.881580352783" lon="2.8554382324219"><ele></ele><time>2025-5-6T15:48:48Z</time></trkpt>
<trkpt lat="48.88162612915" lon="2.8554096221924"><ele></ele><time>2025-5-6T15:48:51Z</time></trkpt>
<trkpt lat="48.88166809082" lon="2.8553743362427"><ele></ele><time>2025-5-6T15:48:54Z</time></trkpt>
<trkpt lat="48.88171005249" lon="2.8553378582001"><ele></ele><time>2025-5-6T15:48:57Z</time></trkpt>
<trkpt lat="48.881755828857" lon="2.8553080558777"><ele></ele><time>2025-5-6T15:49:0Z</time></trkpt>
<trkpt lat="48.881797790527" lon="2.8552808761597"><ele></ele><time>2025-5-6T15:49:3Z</time></trkpt>
<trkpt lat="48.881843566895" lon="2.8552541732788"><ele></ele><time>2025-5-6T15:49:6Z</time></trkpt>
<trkpt lat="48.881885528564" lon="2.8552269935608"><ele></ele><time>2025-5-6T15:49:9Z</time></trkpt>
<trkpt lat="48.881931304932" lon="2.8552005290985"><ele></ele><time>2025-5-6T15:49:12Z</time></trkpt>
<trkpt lat="48.881977081299" lon="2.8551666736603"><ele></ele><time>2025-5-6T15:49:15Z</time></trkpt>
<trkpt lat="48.882019042969" lon="2.8551375865936"><ele></ele><time>2025-5-6T15:49:18Z</time></trkpt>
<trkpt lat="48.882064819336" lon="2.8551108837128"><ele></ele><time>2025-5-6T15:49:21Z</time></trkpt>
<trkpt lat="48.882110595703" lon="2.8550810813904"><ele></ele><time>2025-5-6T15:49:24Z</time></trkpt>
<trkpt lat="48.88215637207" lon="2.8550515174866"><ele></ele><time>2025-5-6T15:49:27Z</time></trkpt>
<trkpt lat="48.882205963135" lon="2.8550209999084"><ele></ele><time>2025-5-6T15:49:30Z</time></trkpt>
<trkpt lat="48.882251739502" lon="2.8549957275391"><ele></ele><time>2025-5-6T15:49:33Z</time></trkpt>
<trkpt lat="48.882301330566" lon="2.8549604415894"><ele></ele><time>2025-5-6T15:49:36Z</time></trkpt>
<trkpt lat="48.882350921631" lon="2.8549280166626"><ele></ele><time>2025-5-6T15:49:39Z</time></trkpt>
<trkpt lat="48.882396697998" lon="2.8548889160156"><ele></ele><time>2025-5-6T15:49:42Z</time></trkpt>
<trkpt lat="48.882438659668" lon="2.8548526763916"><ele></ele><time>2025-5-6T15:49:45Z</time></trkpt>
<trkpt lat="48.882488250732" lon="2.8548123836517"><ele></ele><time>2025-5-6T15:49:48Z</time></trkpt>
<trkpt lat="48.8825340271" lon="2.854775428772"><ele></ele><time>2025-5-6T15:49:51Z</time></trkpt>
<trkpt lat="48.88257598877" lon="2.8547494411469"><ele></ele><time>2025-5-6T15:49:54Z</time></trkpt>
<trkpt lat="48.882621765137" lon="2.8547315597534"><ele></ele><time>2025-5-6T15:49:57Z</time></trkpt>
<trkpt lat="48.882663726807" lon="2.8547174930573"><ele></ele><time>2025-5-6T15:50:0Z</time></trkpt>
<trkpt lat="48.882701873779" lon="2.8546979427338"><ele></ele><time>2025-5-6T15:50:3Z</time></trkpt>
<trkpt lat="48.882751464844" lon="2.8546688556671"><ele></ele><time>2025-5-6T15:50:6Z</time></trkpt>
<trkpt lat="48.882801055908" lon="2.8546321392059"><ele></ele><time>2025-5-6T15:50:9Z</time></trkpt>
<trkpt lat="48.882843017578" lon="2.8545935153961"><ele></ele><time>2025-5-6T15:50:12Z</time></trkpt>
<trkpt lat="48.882881164551" lon="2.8545451164246"><ele></ele><time>2025-5-6T15:50:15Z</time></trkpt>
<trkpt lat="48.882923126221" lon="2.8544979095459"><ele></ele><time>2025-5-6T15:50:18Z</time></trkpt>
<trkpt lat="48.882957458496" lon="2.8544585704803"><ele></ele><time>2025-5-6T15:50:21Z</time></trkpt>
<trkpt lat="48.882999420166" lon="2.8544101715088"><ele></ele><time>2025-5-6T15:50:24Z</time></trkpt>
<trkpt lat="48.883045196533" lon="2.8543603420258"><ele></ele><time>2025-5-6T15:50:27Z</time></trkpt>
<trkpt lat="48.883083343506" lon="2.8543155193329"><ele></ele><time>2025-5-6T15:50:30Z</time></trkpt>
<trkpt lat="48.883117675781" lon="2.8542695045471"><ele></ele><time>2025-5-6T15:50:33Z</time></trkpt>
<trkpt lat="48.883148193359" lon="2.8542282581329"><ele></ele><time>2025-5-6T15:50:36Z</time></trkpt>
<trkpt lat="48.883186340332" lon="2.8541889190674"><ele></ele><time>2025-5-6T15:50:39Z</time></trkpt>
<trkpt lat="48.883228302002" lon="2.8541519641876"><ele></ele><time>2025-5-6T15:50:42Z</time></trkpt>
<trkpt lat="48.883266448975" lon="2.854118347168"><ele></ele><time>2025-5-6T15:50:45Z</time></trkpt>
<trkpt lat="48.883308410645" lon="2.8540892601013"><ele></ele><time>2025-5-6T15:50:48Z</time></trkpt>
<trkpt lat="48.883354187012" lon="2.8540635108948"><ele></ele><time>2025-5-6T15:50:51Z</time></trkpt>
<trkpt lat="48.883396148682" lon="2.854038476944"><ele></ele><time>2025-5-6T15:50:54Z</time></trkpt>
<trkpt lat="48.883434295654" lon="2.8540177345276"><ele></ele><time>2025-5-6T15:50:57Z</time></trkpt>
<trkpt lat="48.88346862793" lon="2.8539969921112"><ele></ele><time>2025-5-6T15:51:0Z</time></trkpt>
<trkpt lat="48.8835105896" lon="2.8539705276489"><ele></ele><time>2025-5-6T15:51:3Z</time></trkpt>
<trkpt lat="48.88355255127" lon="2.8539342880249"><ele></ele><time>2025-5-6T15:51:6Z</time></trkpt>
<trkpt lat="48.883586883545" lon="2.8538997173309"><ele></ele><time>2025-5-6T15:51:9Z</time></trkpt>
<trkpt lat="48.883617401123" lon="2.853874206543"><ele></ele><time>2025-5-6T15:51:12Z</time></trkpt>
<trkpt lat="48.883640289307" lon="2.8538541793823"><ele></ele><time>2025-5-6T15:51:15Z</time></trkpt>
<trkpt lat="48.88366317749" lon="2.8538389205933"><ele></ele><time>2025-5-6T15:51:18Z</time></trkpt>
<trkpt lat="48.883682250977" lon="2.8538293838501"><ele></ele><time>2025-5-6T15:51:21Z</time></trkpt>
<trkpt lat="48.883701324463" lon="2.8538177013397"><ele></ele><time>2025-5-6T15:51:24Z</time></trkpt>
<trkpt lat="48.883720397949" lon="2.8538002967834"><ele></ele><time>2025-5-6T15:51:27Z</time></trkpt>
<trkpt lat="48.883739471436" lon="2.8537828922272"><ele></ele><time>2025-5-6T15:51:30Z</time></trkpt>
<trkpt lat="48.883758544922" lon="2.8537681102753"><ele></ele><time>2025-5-6T15:51:33Z</time></trkpt>
<trkpt lat="48.8837890625" lon="2.8537468910217"><ele></ele><time>2025-5-6T15:51:36Z</time></trkpt>
<trkpt lat="48.883823394775" lon="2.8537139892578"><ele></ele><time>2025-5-6T15:51:39Z</time></trkpt>
<trkpt lat="48.883869171143" lon="2.8536694049835"><ele></ele><time>2025-5-6T15:51:42Z</time></trkpt>
<trkpt lat="48.883907318115" lon="2.8536069393158"><ele></ele><time>2025-5-6T15:51:45Z</time></trkpt>
<trkpt lat="48.883937835693" lon="2.8535447120667"><ele></ele><time>2025-5-6T15:51:48Z</time></trkpt>
<trkpt lat="48.883972167969" lon="2.8534698486328"><ele></ele><time>2025-5-6T15:51:51Z</time></trkpt>
<trkpt lat="48.884006500244" lon="2.8534009456635"><ele></ele><time>2025-5-6T15:51:54Z</time></trkpt>
<trkpt lat="48.884044647217" lon="2.8533341884613"><ele></ele><time>2025-5-6T15:51:57Z</time></trkpt>
<trkpt lat="48.884078979492" lon="2.8532779216766"><ele></ele><time>2025-5-6T15:52:0Z</time></trkpt>
<trkpt lat="48.884113311768" lon="2.8532338142395"><ele></ele><time>2025-5-6T15:52:3Z</time></trkpt>
<trkpt lat="48.884159088135" lon="2.8531732559204"><ele></ele><time>2025-5-6T15:52:6Z</time></trkpt>
<trkpt lat="48.884197235107" lon="2.8531098365784"><ele></ele><time>2025-5-6T15:52:9Z</time></trkpt>
<trkpt lat="48.884239196777" lon="2.8530473709106"><ele></ele><time>2025-5-6T15:52:12Z</time></trkpt>
<trkpt lat="48.88427734375" lon="2.8529868125916"><ele></ele><time>2025-5-6T15:52:15Z</time></trkpt>
<trkpt lat="48.884311676025" lon="2.8529348373413"><ele></ele><time>2025-5-6T15:52:18Z</time></trkpt>
<trkpt lat="48.884349822998" lon="2.8528940677643"><ele></ele><time>2025-5-6T15:52:21Z</time></trkpt>
<trkpt lat="48.884380340576" lon="2.8528563976288"><ele></ele><time>2025-5-6T15:52:24Z</time></trkpt>
<trkpt lat="48.884407043457" lon="2.8528218269348"><ele></ele><time>2025-5-6T15:52:27Z</time></trkpt>
<trkpt lat="48.884433746338" lon="2.852783203125"><ele></ele><time>2025-5-6T15:52:30Z</time></trkpt>
<trkpt lat="48.884464263916" lon="2.8527464866638"><ele></ele><time>2025-5-6T15:52:33Z</time></trkpt>
<trkpt lat="48.884490966797" lon="2.8527150154114"><ele></ele><time>2025-5-6T15:52:36Z</time></trkpt>
<trkpt lat="48.884521484375" lon="2.8526821136475"><ele></ele><time>2025-5-6T15:52:39Z</time></trkpt>
<trkpt lat="48.88455581665" lon="2.8526520729065"><ele></ele><time>2025-5-6T15:52:42Z</time></trkpt>
<trkpt lat="48.884578704834" lon="2.852635383606"><ele></ele><time>2025-5-6T15:52:45Z</time></trkpt>
<trkpt lat="48.884609222412" lon="2.8526177406311"><ele></ele><time>2025-5-6T15:52:48Z</time></trkpt>
<trkpt lat="48.884635925293" lon="2.8526055812836"><ele></ele><time>2025-5-6T15:52:51Z</time></trkpt>
<trkpt lat="48.884658813477" lon="2.8525998592377"><ele></ele><time>2025-5-6T15:52:54Z</time></trkpt>
<trkpt lat="48.884677886963" lon="2.852587223053"><ele></ele><time>2025-5-6T15:52:57Z</time></trkpt>
<trkpt lat="48.884696960449" lon="2.8525757789612"><ele></ele><time>2025-5-6T15:53:0Z</time></trkpt>
<trkpt lat="48.884712219238" lon="2.8525648117065"><ele></ele><time>2025-5-6T15:53:3Z</time></trkpt>
<trkpt lat="48.88472366333" lon="2.852557182312"><ele></ele><time>2025-5-6T15:53:6Z</time></trkpt>
<trkpt lat="48.884742736816" lon="2.8525431156158"><ele></ele><time>2025-5-6T15:53:9Z</time></trkpt>
<trkpt lat="48.884765625" lon="2.8525295257568"><ele></ele><time>2025-5-6T15:53:12Z</time></trkpt>
<trkpt lat="48.884792327881" lon="2.8525078296661"><ele></ele><time>2025-5-6T15:53:15Z</time></trkpt>
<trkpt lat="48.884826660156" lon="2.8524599075317"><ele></ele><time>2025-5-6T15:53:18Z</time></trkpt>
<trkpt lat="48.884860992432" lon="2.8523986339569"><ele></ele><time>2025-5-6T15:53:21Z</time></trkpt>
<trkpt lat="48.884895324707" lon="2.8523292541504"><ele></ele><time>2025-5-6T15:53:24Z</time></trkpt>
<trkpt lat="48.884929656982" lon="2.8522465229034"><ele></ele><time>2025-5-6T15:53:27Z</time></trkpt>
<trkpt lat="48.884956359863" lon="2.8521564006805"><ele></ele><time>2025-5-6T15:53:30Z</time></trkpt>
<trkpt lat="48.884986877441" lon="2.8520629405975"><ele></ele><time>2025-5-6T15:53:33Z</time></trkpt>
<trkpt lat="48.885009765625" lon="2.8519809246063"><ele></ele><time>2025-5-6T15:53:36Z</time></trkpt>
<trkpt lat="48.885032653809" lon="2.8518888950348"><ele></ele><time>2025-5-6T15:53:39Z</time></trkpt>
<trkpt lat="48.885051727295" lon="2.8518025875092"><ele></ele><time>2025-5-6T15:53:42Z</time></trkpt>
<trkpt lat="48.885066986084" lon="2.8517372608185"><ele></ele><time>2025-5-6T15:53:45Z</time></trkpt>
<trkpt lat="48.88508605957" lon="2.8516597747803"><ele></ele><time>2025-5-6T15:53:48Z</time></trkpt>
<trkpt lat="48.885105133057" lon="2.8515784740448"><ele></ele><time>2025-5-6T15:53:51Z</time></trkpt>
<trkpt lat="48.885124206543" lon="2.851496219635"><ele></ele><time>2025-5-6T15:53:54Z</time></trkpt>
<trkpt lat="48.885143280029" lon="2.8514223098755"><ele></ele><time>2025-5-6T15:53:57Z</time></trkpt>
<trkpt lat="48.885158538818" lon="2.8513524532318"><ele></ele><time>2025-5-6T15:54:0Z</time></trkpt>
<trkpt lat="48.885177612305" lon="2.851279258728"><ele></ele><time>2025-5-6T15:54:3Z</time></trkpt>
<trkpt lat="48.885196685791" lon="2.8512146472931"><ele></ele><time>2025-5-6T15:54:6Z</time></trkpt>
<trkpt lat="48.885219573975" lon="2.8511395454407"><ele></ele><time>2025-5-6T15:54:9Z</time></trkpt>
<trkpt lat="48.885242462158" lon="2.8510620594025"><ele></ele><time>2025-5-6T15:54:12Z</time></trkpt>
<trkpt lat="48.885269165039" lon="2.8509917259216"><ele></ele><time>2025-5-6T15:54:15Z</time></trkpt>
<trkpt lat="48.885292053223" lon="2.8509156703949"><ele></ele><time>2025-5-6T15:54:18Z</time></trkpt>
<trkpt lat="48.885314941406" lon="2.8508429527283"><ele></ele><time>2025-5-6T15:54:21Z</time></trkpt>
<trkpt lat="48.885334014893" lon="2.850780248642"><ele></ele><time>2025-5-6T15:54:24Z</time></trkpt>
<trkpt lat="48.885349273682" lon="2.8507270812988"><ele></ele><time>2025-5-6T15:54:27Z</time></trkpt>
<trkpt lat="48.885368347168" lon="2.8506655693054"><ele></ele><time>2025-5-6T15:54:30Z</time></trkpt>
<trkpt lat="48.885383605957" lon="2.8505992889404"><ele></ele><time>2025-5-6T15:54:33Z</time></trkpt>
<trkpt lat="48.885398864746" lon="2.8505387306213"><ele></ele><time>2025-5-6T15:54:36Z</time></trkpt>
<trkpt lat="48.885414123535" lon="2.85049700737"><ele></ele><time>2025-5-6T15:54:39Z</time></trkpt>
<trkpt lat="48.885437011719" lon="2.8504495620728"><ele></ele><time>2025-5-6T15:54:42Z</time></trkpt>
<trkpt lat="48.885459899902" lon="2.8503947257996"><ele></ele><time>2025-5-6T15:54:45Z</time></trkpt>
<trkpt lat="48.885486602783" lon="2.8503348827362"><ele></ele><time>2025-5-6T15:54:48Z</time></trkpt>
<trkpt lat="48.885501861572" lon="2.8502767086029"><ele></ele><time>2025-5-6T15:54:51Z</time></trkpt>
<trkpt lat="48.885517120361" lon="2.8501961231232"><ele></ele><time>2025-5-6T15:54:54Z</time></trkpt>
<trkpt lat="48.885520935059" lon="2.8501298427582"><ele></ele><time>2025-5-6T15:54:57Z</time></trkpt>
<trkpt lat="48.885524749756" lon="2.8500597476959"><ele></ele><time>2025-5-6T15:55:0Z</time></trkpt>
<trkpt lat="48.885528564453" lon="2.8499884605408"><ele></ele><time>2025-5-6T15:55:3Z</time></trkpt>
<trkpt lat="48.885528564453" lon="2.8499150276184"><ele></ele><time>2025-5-6T15:55:6Z</time></trkpt>
<trkpt lat="48.88553237915" lon="2.8498494625092"><ele></ele><time>2025-5-6T15:55:9Z</time></trkpt>
<trkpt lat="48.885540008545" lon="2.8497841358185"><ele></ele><time>2025-5-6T15:55:12Z</time></trkpt>
<trkpt lat="48.885547637939" lon="2.8497314453125"><ele></ele><time>2025-5-6T15:55:15Z</time></trkpt>
<trkpt lat="48.885559082031" lon="2.8496837615967"><ele></ele><time>2025-5-6T15:55:18Z</time></trkpt>
<trkpt lat="48.88557434082" lon="2.8496150970459"><ele></ele><time>2025-5-6T15:55:21Z</time></trkpt>
<trkpt lat="48.885585784912" lon="2.8495478630066"><ele></ele><time>2025-5-6T15:55:24Z</time></trkpt>
<trkpt lat="48.885601043701" lon="2.8494753837585"><ele></ele><time>2025-5-6T15:55:27Z</time></trkpt>
<trkpt lat="48.885620117188" lon="2.8494157791138"><ele></ele><time>2025-5-6T15:55:30Z</time></trkpt>
<trkpt lat="48.885639190674" lon="2.8493511676788"><ele></ele><time>2025-5-6T15:55:33Z</time></trkpt>
<trkpt lat="48.885654449463" lon="2.8492918014526"><ele></ele><time>2025-5-6T15:55:36Z</time></trkpt>
<trkpt lat="48.885673522949" lon="2.8492300510406"><ele></ele><time>2025-5-6T15:55:39Z</time></trkpt>
<trkpt lat="48.885692596436" lon="2.8491768836975"><ele></ele><time>2025-5-6T15:55:42Z</time></trkpt>
<trkpt lat="48.885711669922" lon="2.8491370677948"><ele></ele><time>2025-5-6T15:55:45Z</time></trkpt>
<trkpt lat="48.8857421875" lon="2.8490836620331"><ele></ele><time>2025-5-6T15:55:48Z</time></trkpt>
<trkpt lat="48.885765075684" lon="2.8490271568298"><ele></ele><time>2025-5-6T15:55:51Z</time></trkpt>
<trkpt lat="48.885787963867" lon="2.8489668369293"><ele></ele><time>2025-5-6T15:55:54Z</time></trkpt>
<trkpt lat="48.885807037354" lon="2.8488945960999"><ele></ele><time>2025-5-6T15:55:57Z</time></trkpt>
<trkpt lat="48.885818481445" lon="2.8488347530365"><ele></ele><time>2025-5-6T15:56:0Z</time></trkpt>
<trkpt lat="48.88582611084" lon="2.8487780094147"><ele></ele><time>2025-5-6T15:56:3Z</time></trkpt>
<trkpt lat="48.885829925537" lon="2.8487141132355"><ele></ele><time>2025-5-6T15:56:6Z</time></trkpt>
<trkpt lat="48.88582611084" lon="2.8486602306366"><ele></ele><time>2025-5-6T15:56:9Z</time></trkpt>
<trkpt lat="48.885822296143" lon="2.8485918045044"><ele></ele><time>2025-5-6T15:56:12Z</time></trkpt>
<trkpt lat="48.885829925537" lon="2.8485202789307"><ele></ele><time>2025-5-6T15:56:15Z</time></trkpt>
<trkpt lat="48.885837554932" lon="2.8484501838684"><ele></ele><time>2025-5-6T15:56:18Z</time></trkpt>
<trkpt lat="48.885852813721" lon="2.8483831882477"><ele></ele><time>2025-5-6T15:56:21Z</time></trkpt>
<trkpt lat="48.88586807251" lon="2.8483235836029"><ele></ele><time>2025-5-6T15:56:24Z</time></trkpt>
<trkpt lat="48.885887145996" lon="2.8482711315155"><ele></ele><time>2025-5-6T15:56:27Z</time></trkpt>
<trkpt lat="48.885902404785" lon="2.8482179641724"><ele></ele><time>2025-5-6T15:56:30Z</time></trkpt>
<trkpt lat="48.885921478271" lon="2.8481688499451"><ele></ele><time>2025-5-6T15:56:33Z</time></trkpt>
<trkpt lat="48.885940551758" lon="2.8481011390686"><ele></ele><time>2025-5-6T15:56:36Z</time></trkpt>
<trkpt lat="48.885955810547" lon="2.848039150238"><ele></ele><time>2025-5-6T15:56:39Z</time></trkpt>
<trkpt lat="48.885974884033" lon="2.8479881286621"><ele></ele><time>2025-5-6T15:56:42Z</time></trkpt>
<trkpt lat="48.885997772217" lon="2.8479170799255"><ele></ele><time>2025-5-6T15:56:45Z</time></trkpt>
<trkpt lat="48.886016845703" lon="2.8478515148163"><ele></ele><time>2025-5-6T15:56:48Z</time></trkpt>
<trkpt lat="48.886039733887" lon="2.8477945327759"><ele></ele><time>2025-5-6T15:56:51Z</time></trkpt>
<trkpt lat="48.886066436768" lon="2.8477258682251"><ele></ele><time>2025-5-6T15:56:54Z</time></trkpt>
<trkpt lat="48.886081695557" lon="2.8476619720459"><ele></ele><time>2025-5-6T15:56:57Z</time></trkpt>
<trkpt lat="48.886096954346" lon="2.8475947380066"><ele></ele><time>2025-5-6T15:57:0Z</time></trkpt>
<trkpt lat="48.886108398438" lon="2.8475270271301"><ele></ele><time>2025-5-6T15:57:3Z</time></trkpt>
<trkpt lat="48.886127471924" lon="2.8474695682526"><ele></ele><time>2025-5-6T15:57:6Z</time></trkpt>
<trkpt lat="48.886138916016" lon="2.8474087715149"><ele></ele><time>2025-5-6T15:57:9Z</time></trkpt>
<trkpt lat="48.886150360107" lon="2.847359418869"><ele></ele><time>2025-5-6T15:57:12Z</time></trkpt>
<trkpt lat="48.886173248291" lon="2.8473064899445"><ele></ele><time>2025-5-6T15:57:15Z</time></trkpt>
<trkpt lat="48.886203765869" lon="2.8472506999969"><ele></ele><time>2025-5-6T15:57:18Z</time></trkpt>
<trkpt lat="48.886234283447" lon="2.8471949100494"><ele></ele><time>2025-5-6T15:57:21Z</time></trkpt>
<trkpt lat="48.886264801025" lon="2.847151517868"><ele></ele><time>2025-5-6T15:57:24Z</time></trkpt>
<trkpt lat="48.886295318604" lon="2.8471145629883"><ele></ele><time>2025-5-6T15:57:27Z</time></trkpt>
<trkpt lat="48.886318206787" lon="2.8470857143402"><ele></ele><time>2025-5-6T15:57:30Z</time></trkpt>
<trkpt lat="48.886325836182" lon="2.8470602035522"><ele></ele><time>2025-5-6T15:57:33Z</time></trkpt>
<trkpt lat="48.886333465576" lon="2.8470146656036"><ele></ele><time>2025-5-6T15:57:36Z</time></trkpt>
<trkpt lat="48.886344909668" lon="2.8469805717468"><ele></ele><time>2025-5-6T15:57:39Z</time></trkpt>
<trkpt lat="48.886352539062" lon="2.8469567298889"><ele></ele><time>2025-5-6T15:57:42Z</time></trkpt>
<trkpt lat="48.886367797852" lon="2.8469297885895"><ele></ele><time>2025-5-6T15:57:45Z</time></trkpt>
<trkpt lat="48.886375427246" lon="2.8469088077545"><ele></ele><time>2025-5-6T15:57:48Z</time></trkpt>
<trkpt lat="48.886386871338" lon="2.8468797206879"><ele></ele><time>2025-5-6T15:57:51Z</time></trkpt>
<trkpt lat="48.886394500732" lon="2.8468396663666"><ele></ele><time>2025-5-6T15:57:54Z</time></trkpt>
<trkpt lat="48.88639831543" lon="2.8468008041382"><ele></ele><time>2025-5-6T15:57:57Z</time></trkpt>
<trkpt lat="48.88639831543" lon="2.8467719554901"><ele></ele><time>2025-5-6T15:58:0Z</time></trkpt>
<trkpt lat="48.886402130127" lon="2.8467402458191"><ele></ele><time>2025-5-6T15:58:3Z</time></trkpt>
<trkpt lat="48.886409759521" lon="2.8467066287994"><ele></ele><time>2025-5-6T15:58:6Z</time></trkpt>
<trkpt lat="48.886428833008" lon="2.8466770648956"><ele></ele><time>2025-5-6T15:58:9Z</time></trkpt>
<trkpt lat="48.886444091797" lon="2.8466453552246"><ele></ele><time>2025-5-6T15:58:12Z</time></trkpt>
<trkpt lat="48.886455535889" lon="2.8466131687164"><ele></ele><time>2025-5-6T15:58:15Z</time></trkpt>
<trkpt lat="48.88646697998" lon="2.8465797901154"><ele></ele><time>2025-5-6T15:58:18Z</time></trkpt>
<trkpt lat="48.886478424072" lon="2.8465464115143"><ele></ele><time>2025-5-6T15:58:21Z</time></trkpt>
<trkpt lat="48.886493682861" lon="2.8465058803558"><ele></ele><time>2025-5-6T15:58:24Z</time></trkpt>
<trkpt lat="48.886505126953" lon="2.8464646339417"><ele></ele><time>2025-5-6T15:58:27Z</time></trkpt>
<trkpt lat="48.886516571045" lon="2.8464119434357"><ele></ele><time>2025-5-6T15:58:30Z</time></trkpt>
<trkpt lat="48.886528015137" lon="2.8463592529297"><ele></ele><time>2025-5-6T15:58:33Z</time></trkpt>
<trkpt lat="48.886547088623" lon="2.8462944030762"><ele></ele><time>2025-5-6T15:58:36Z</time></trkpt>
<trkpt lat="48.886562347412" lon="2.8462300300598"><ele></ele><time>2025-5-6T15:58:39Z</time></trkpt>
<trkpt lat="48.886577606201" lon="2.8461871147156"><ele></ele><time>2025-5-6T15:58:42Z</time></trkpt>
<trkpt lat="48.88659286499" lon="2.8461353778839"><ele></ele><time>2025-5-6T15:58:45Z</time></trkpt>
<trkpt lat="48.886611938477" lon="2.8460855484009"><ele></ele><time>2025-5-6T15:58:48Z</time></trkpt>
<trkpt lat="48.886627197266" lon="2.8460409641266"><ele></ele><time>2025-5-6T15:58:51Z</time></trkpt>
<trkpt lat="48.886646270752" lon="2.8459923267365"><ele></ele><time>2025-5-6T15:58:54Z</time></trkpt>
<trkpt lat="48.886657714844" lon="2.8459322452545"><ele></ele><time>2025-5-6T15:58:57Z</time></trkpt>
<trkpt lat="48.88667678833" lon="2.8458580970764"><ele></ele><time>2025-5-6T15:59:0Z</time></trkpt>
<trkpt lat="48.886695861816" lon="2.8457918167114"><ele></ele><time>2025-5-6T15:59:3Z</time></trkpt>
<trkpt lat="48.886714935303" lon="2.8457293510437"><ele></ele><time>2025-5-6T15:59:6Z</time></trkpt>
<trkpt lat="48.886726379395" lon="2.845666885376"><ele></ele><time>2025-5-6T15:59:9Z</time></trkpt>
<trkpt lat="48.886745452881" lon="2.8456025123596"><ele></ele><time>2025-5-6T15:59:12Z</time></trkpt>
<trkpt lat="48.88676071167" lon="2.8455238342285"><ele></ele><time>2025-5-6T15:59:15Z</time></trkpt>
<trkpt lat="48.886772155762" lon="2.8454508781433"><ele></ele><time>2025-5-6T15:59:18Z</time></trkpt>
<trkpt lat="48.886791229248" lon="2.845386505127"><ele></ele><time>2025-5-6T15:59:21Z</time></trkpt>
<trkpt lat="48.886810302734" lon="2.8453285694122"><ele></ele><time>2025-5-6T15:59:24Z</time></trkpt>
<trkpt lat="48.886829376221" lon="2.8452687263489"><ele></ele><time>2025-5-6T15:59:27Z</time></trkpt>
<trkpt lat="48.886840820312" lon="2.8452107906342"><ele></ele><time>2025-5-6T15:59:30Z</time></trkpt>
<trkpt lat="48.886852264404" lon="2.8451373577118"><ele></ele><time>2025-5-6T15:59:33Z</time></trkpt>
<trkpt lat="48.886871337891" lon="2.8450856208801"><ele></ele><time>2025-5-6T15:59:36Z</time></trkpt>
<trkpt lat="48.886882781982" lon="2.8450450897217"><ele></ele><time>2025-5-6T15:59:39Z</time></trkpt>
<trkpt lat="48.886898040771" lon="2.8449897766113"><ele></ele><time>2025-5-6T15:59:42Z</time></trkpt>
<trkpt lat="48.886913299561" lon="2.8449378013611"><ele></ele><time>2025-5-6T15:59:45Z</time></trkpt>
<trkpt lat="48.88692855835" lon="2.8448858261108"><ele></ele><time>2025-5-6T15:59:48Z</time></trkpt>
<trkpt lat="48.886951446533" lon="2.8448309898376"><ele></ele><time>2025-5-6T15:59:51Z</time></trkpt>
<trkpt lat="48.886974334717" lon="2.8447632789612"><ele></ele><time>2025-5-6T15:59:54Z</time></trkpt>
<trkpt lat="48.886993408203" lon="2.8446898460388"><ele></ele><time>2025-5-6T15:59:57Z</time></trkpt>
<trkpt lat="48.887016296387" lon="2.8446187973022"><ele></ele><time>2025-5-6T16:0:0Z</time></trkpt>
<trkpt lat="48.887031555176" lon="2.844554901123"><ele></ele><time>2025-5-6T16:0:3Z</time></trkpt>
<trkpt lat="48.887046813965" lon="2.8445014953613"><ele></ele><time>2025-5-6T16:0:6Z</time></trkpt>
<trkpt lat="48.887058258057" lon="2.8444504737854"><ele></ele><time>2025-5-6T16:0:9Z</time></trkpt>
<trkpt lat="48.887073516846" lon="2.8443748950958"><ele></ele><time>2025-5-6T16:0:12Z</time></trkpt>
<trkpt lat="48.887084960938" lon="2.8443098068237"><ele></ele><time>2025-5-6T16:0:15Z</time></trkpt>
<trkpt lat="48.887104034424" lon="2.8442454338074"><ele></ele><time>2025-5-6T16:0:18Z</time></trkpt>
<trkpt lat="48.88712310791" lon="2.8441867828369"><ele></ele><time>2025-5-6T16:0:21Z</time></trkpt>
<trkpt lat="48.887138366699" lon="2.844128370285"><ele></ele><time>2025-5-6T16:0:24Z</time></trkpt>
<trkpt lat="48.88716506958" lon="2.844042301178"><ele></ele><time>2025-5-6T16:0:27Z</time></trkpt>
<trkpt lat="48.887187957764" lon="2.8439633846283"><ele></ele><time>2025-5-6T16:0:30Z</time></trkpt>
<trkpt lat="48.88720703125" lon="2.8439025878906"><ele></ele><time>2025-5-6T16:0:33Z</time></trkpt>
<trkpt lat="48.887222290039" lon="2.8438439369202"><ele></ele><time>2025-5-6T16:0:36Z</time></trkpt>
<trkpt lat="48.887233734131" lon="2.8437864780426"><ele></ele><time>2025-5-6T16:0:39Z</time></trkpt>
<trkpt lat="48.88724899292" lon="2.8437397480011"><ele></ele><time>2025-5-6T16:0:42Z</time></trkpt>
<trkpt lat="48.887256622314" lon="2.8436839580536"><ele></ele><time>2025-5-6T16:0:45Z</time></trkpt>
<trkpt lat="48.887271881104" lon="2.843629360199"><ele></ele><time>2025-5-6T16:0:48Z</time></trkpt>
<trkpt lat="48.887283325195" lon="2.8435804843903"><ele></ele><time>2025-5-6T16:0:51Z</time></trkpt>
<trkpt lat="48.887298583984" lon="2.8435304164886"><ele></ele><time>2025-5-6T16:0:54Z</time></trkpt>
<trkpt lat="48.887317657471" lon="2.8434536457062"><ele></ele><time>2025-5-6T16:0:57Z</time></trkpt>
<trkpt lat="48.887325286865" lon="2.843368768692"><ele></ele><time>2025-5-6T16:1:0Z</time></trkpt>
<trkpt lat="48.887348175049" lon="2.8432908058167"><ele></ele><time>2025-5-6T16:1:3Z</time></trkpt>
<trkpt lat="48.887363433838" lon="2.8432352542877"><ele></ele><time>2025-5-6T16:1:6Z</time></trkpt>
<trkpt lat="48.88737487793" lon="2.8431904315948"><ele></ele><time>2025-5-6T16:1:9Z</time></trkpt>
<trkpt lat="48.887382507324" lon="2.8431422710419"><ele></ele><time>2025-5-6T16:1:12Z</time></trkpt>
<trkpt lat="48.887393951416" lon="2.8430926799774"><ele></ele><time>2025-5-6T16:1:15Z</time></trkpt>
<trkpt lat="48.887401580811" lon="2.8430352210999"><ele></ele><time>2025-5-6T16:1:18Z</time></trkpt>
<trkpt lat="48.887413024902" lon="2.8429889678955"><ele></ele><time>2025-5-6T16:1:21Z</time></trkpt>
<trkpt lat="48.887432098389" lon="2.8429408073425"><ele></ele><time>2025-5-6T16:1:24Z</time></trkpt>
<trkpt lat="48.887451171875" lon="2.8429100513458"><ele></ele><time>2025-5-6T16:1:27Z</time></trkpt>
<trkpt lat="48.887470245361" lon="2.8428814411163"><ele></ele><time>2025-5-6T16:1:30Z</time></trkpt>
<trkpt lat="48.88748550415" lon="2.842848777771"><ele></ele><time>2025-5-6T16:1:33Z</time></trkpt>
<trkpt lat="48.887504577637" lon="2.8428139686584"><ele></ele><time>2025-5-6T16:1:36Z</time></trkpt>
<trkpt lat="48.887519836426" lon="2.8427722454071"><ele></ele><time>2025-5-6T16:1:39Z</time></trkpt>
<trkpt lat="48.887535095215" lon="2.8427200317383"><ele></ele><time>2025-5-6T16:1:42Z</time></trkpt>
<trkpt lat="48.887554168701" lon="2.8426616191864"><ele></ele><time>2025-5-6T16:1:45Z</time></trkpt>
<trkpt lat="48.88756942749" lon="2.84259724617"><ele></ele><time>2025-5-6T16:1:48Z</time></trkpt>
<trkpt lat="48.887588500977" lon="2.8425343036652"><ele></ele><time>2025-5-6T16:1:51Z</time></trkpt>
<trkpt lat="48.887603759766" lon="2.842465877533"><ele></ele><time>2025-5-6T16:1:54Z</time></trkpt>
<trkpt lat="48.88761138916" lon="2.8424141407013"><ele></ele><time>2025-5-6T16:1:57Z</time></trkpt>
<trkpt lat="48.887622833252" lon="2.8423595428467"><ele></ele><time>2025-5-6T16:2:0Z</time></trkpt>
<trkpt lat="48.887634277344" lon="2.8423058986664"><ele></ele><time>2025-5-6T16:2:3Z</time></trkpt>
<trkpt lat="48.887645721436" lon="2.8422424793243"><ele></ele><time>2025-5-6T16:2:6Z</time></trkpt>
<trkpt lat="48.88765335083" lon="2.8421876430511"><ele></ele><time>2025-5-6T16:2:9Z</time></trkpt>
<trkpt lat="48.887660980225" lon="2.8421406745911"><ele></ele><time>2025-5-6T16:2:12Z</time></trkpt>
<trkpt lat="48.887672424316" lon="2.8420877456665"><ele></ele><time>2025-5-6T16:2:15Z</time></trkpt>
<trkpt lat="48.887687683105" lon="2.8420321941376"><ele></ele><time>2025-5-6T16:2:18Z</time></trkpt>
<trkpt lat="48.887699127197" lon="2.8419716358185"><ele></ele><time>2025-5-6T16:2:21Z</time></trkpt>
<trkpt lat="48.887714385986" lon="2.8419032096863"><ele></ele><time>2025-5-6T16:2:24Z</time></trkpt>
<trkpt lat="48.887733459473" lon="2.8418333530426"><ele></ele><time>2025-5-6T16:2:27Z</time></trkpt>
<trkpt lat="48.887752532959" lon="2.841766834259"><ele></ele><time>2025-5-6T16:2:30Z</time></trkpt>
<trkpt lat="48.887771606445" lon="2.8416986465454"><ele></ele><time>2025-5-6T16:2:33Z</time></trkpt>
<trkpt lat="48.887786865234" lon="2.841644525528"><ele></ele><time>2025-5-6T16:2:36Z</time></trkpt>
<trkpt lat="48.887798309326" lon="2.8415944576263"><ele></ele><time>2025-5-6T16:2:39Z</time></trkpt>
<trkpt lat="48.887813568115" lon="2.8415398597717"><ele></ele><time>2025-5-6T16:2:42Z</time></trkpt>
<trkpt lat="48.88782119751" lon="2.8415012359619"><ele></ele><time>2025-5-6T16:2:45Z</time></trkpt>
<trkpt lat="48.887836456299" lon="2.841459274292"><ele></ele><time>2025-5-6T16:2:48Z</time></trkpt>
<trkpt lat="48.887847900391" lon="2.8414103984833"><ele></ele><time>2025-5-6T16:2:51Z</time></trkpt>
<trkpt lat="48.887866973877" lon="2.8413579463959"><ele></ele><time>2025-5-6T16:2:54Z</time></trkpt>
<trkpt lat="48.887886047363" lon="2.8412916660309"><ele></ele><time>2025-5-6T16:2:57Z</time></trkpt>
<trkpt lat="48.887897491455" lon="2.8412296772003"><ele></ele><time>2025-5-6T16:3:0Z</time></trkpt>
<trkpt lat="48.887912750244" lon="2.8411781787872"><ele></ele><time>2025-5-6T16:3:3Z</time></trkpt>
<trkpt lat="48.887924194336" lon="2.84113240242"><ele></ele><time>2025-5-6T16:3:6Z</time></trkpt>
<trkpt lat="48.887939453125" lon="2.8410820960999"><ele></ele><time>2025-5-6T16:3:9Z</time></trkpt>
<trkpt lat="48.887950897217" lon="2.8410143852234"><ele></ele><time>2025-5-6T16:3:12Z</time></trkpt>
<trkpt lat="48.887966156006" lon="2.8409452438354"><ele></ele><time>2025-5-6T16:3:15Z</time></trkpt>
<trkpt lat="48.887981414795" lon="2.8408813476562"><ele></ele><time>2025-5-6T16:3:18Z</time></trkpt>
<trkpt lat="48.888000488281" lon="2.8408231735229"><ele></ele><time>2025-5-6T16:3:21Z</time></trkpt>
<trkpt lat="48.88801574707" lon="2.8407738208771"><ele></ele><time>2025-5-6T16:3:24Z</time></trkpt>
<trkpt lat="48.888027191162" lon="2.8407187461853"><ele></ele><time>2025-5-6T16:3:27Z</time></trkpt>
<trkpt lat="48.888038635254" lon="2.8406715393066"><ele></ele><time>2025-5-6T16:3:30Z</time></trkpt>
<trkpt lat="48.888050079346" lon="2.8406190872192"><ele></ele><time>2025-5-6T16:3:33Z</time></trkpt>
<trkpt lat="48.88805770874" lon="2.8405652046204"><ele></ele><time>2025-5-6T16:3:36Z</time></trkpt>
<trkpt lat="48.888069152832" lon="2.840503692627"><ele></ele><time>2025-5-6T16:3:39Z</time></trkpt>
<trkpt lat="48.888088226318" lon="2.840441942215"><ele></ele><time>2025-5-6T16:3:42Z</time></trkpt>
<trkpt lat="48.88809967041" lon="2.8403968811035"><ele></ele><time>2025-5-6T16:3:45Z</time></trkpt>
<trkpt lat="48.888111114502" lon="2.8403477668762"><ele></ele><time>2025-5-6T16:3:48Z</time></trkpt>
<trkpt lat="48.888122558594" lon="2.8403043746948"><ele></ele><time>2025-5-6T16:3:51Z</time></trkpt>
<trkpt lat="48.888137817383" lon="2.8402638435364"><ele></ele><time>2025-5-6T16:3:54Z</time></trkpt>
<trkpt lat="48.888149261475" lon="2.840211391449"><ele></ele><time>2025-5-6T16:3:57Z</time></trkpt>
<trkpt lat="48.888172149658" lon="2.8401479721069"><ele></ele><time>2025-5-6T16:4:0Z</time></trkpt>
<trkpt lat="48.888191223145" lon="2.8400917053223"><ele></ele><time>2025-5-6T16:4:3Z</time></trkpt>
<trkpt lat="48.888214111328" lon="2.8400359153748"><ele></ele><time>2025-5-6T16:4:6Z</time></trkpt>
<trkpt lat="48.888244628906" lon="2.839985370636"><ele></ele><time>2025-5-6T16:4:9Z</time></trkpt>
<trkpt lat="48.88826751709" lon="2.8399426937103"><ele></ele><time>2025-5-6T16:4:12Z</time></trkpt>
<trkpt lat="48.888278961182" lon="2.8399152755737"><ele></ele><time>2025-5-6T16:4:15Z</time></trkpt>
<trkpt lat="48.888286590576" lon="2.839900970459"><ele></ele><time>2025-5-6T16:4:18Z</time></trkpt>
<trkpt lat="48.888294219971" lon="2.8398821353912"><ele></ele><time>2025-5-6T16:4:21Z</time></trkpt>
<trkpt lat="48.888305664062" lon="2.8398547172546"><ele></ele><time>2025-5-6T16:4:24Z</time></trkpt>
<trkpt lat="48.888313293457" lon="2.8398303985596"><ele></ele><time>2025-5-6T16:4:27Z</time></trkpt>
<trkpt lat="48.888317108154" lon="2.8398017883301"><ele></ele><time>2025-5-6T16:4:30Z</time></trkpt>
<trkpt lat="48.888317108154" lon="2.8397727012634"><ele></ele><time>2025-5-6T16:4:33Z</time></trkpt>
<trkpt lat="48.888324737549" lon="2.8397417068481"><ele></ele><time>2025-5-6T16:4:36Z</time></trkpt>
<trkpt lat="48.888336181641" lon="2.8397016525269"><ele></ele><time>2025-5-6T16:4:39Z</time></trkpt>
<trkpt lat="48.888347625732" lon="2.8396594524384"><ele></ele><time>2025-5-6T16:4:42Z</time></trkpt>
<trkpt lat="48.888355255127" lon="2.8396141529083"><ele></ele><time>2025-5-6T16:4:45Z</time></trkpt>
<trkpt lat="48.888362884521" lon="2.8395690917969"><ele></ele><time>2025-5-6T16:4:48Z</time></trkpt>
<trkpt lat="48.888370513916" lon="2.8395206928253"><ele></ele><time>2025-5-6T16:4:51Z</time></trkpt>
<trkpt lat="48.888385772705" lon="2.8394858837128"><ele></ele><time>2025-5-6T16:4:54Z</time></trkpt>
<trkpt lat="48.888401031494" lon="2.8394484519958"><ele></ele><time>2025-5-6T16:4:57Z</time></trkpt>
<trkpt lat="48.888412475586" lon="2.8394050598145"><ele></ele><time>2025-5-6T16:5:0Z</time></trkpt>
<trkpt lat="48.888427734375" lon="2.8393588066101"><ele></ele><time>2025-5-6T16:5:3Z</time></trkpt>
<trkpt lat="48.888446807861" lon="2.8393161296844"><ele></ele><time>2025-5-6T16:5:6Z</time></trkpt>
<trkpt lat="48.888465881348" lon="2.8392624855042"><ele></ele><time>2025-5-6T16:5:9Z</time></trkpt>
<trkpt lat="48.888481140137" lon="2.8392083644867"><ele></ele><time>2025-5-6T16:5:12Z</time></trkpt>
<trkpt lat="48.888488769531" lon="2.8391585350037"><ele></ele><time>2025-5-6T16:5:15Z</time></trkpt>
<trkpt lat="48.888500213623" lon="2.8390905857086"><ele></ele><time>2025-5-6T16:5:18Z</time></trkpt>
<trkpt lat="48.88850402832" lon="2.8390340805054"><ele></ele><time>2025-5-6T16:5:21Z</time></trkpt>
<trkpt lat="48.888511657715" lon="2.8389871120453"><ele></ele><time>2025-5-6T16:5:24Z</time></trkpt>
<trkpt lat="48.888515472412" lon="2.8389506340027"><ele></ele><time>2025-5-6T16:5:27Z</time></trkpt>
<trkpt lat="48.888526916504" lon="2.8389127254486"><ele></ele><time>2025-5-6T16:5:30Z</time></trkpt>
<trkpt lat="48.888534545898" lon="2.8388705253601"><ele></ele><time>2025-5-6T16:5:33Z</time></trkpt>
<trkpt lat="48.888542175293" lon="2.8388018608093"><ele></ele><time>2025-5-6T16:5:36Z</time></trkpt>
<trkpt lat="48.888542175293" lon="2.8387777805328"><ele></ele><time>2025-5-6T16:5:39Z</time></trkpt>
<trkpt lat="48.888538360596" lon="2.838761806488"><ele></ele><time>2025-5-6T16:5:42Z</time></trkpt>
<trkpt lat="48.888538360596" lon="2.8387494087219"><ele></ele><time>2025-5-6T16:5:45Z</time></trkpt>
<trkpt lat="48.888538360596" lon="2.8387417793274"><ele></ele><time>2025-5-6T16:5:48Z</time></trkpt>
<trkpt lat="48.888565063477" lon="2.8387794494629"><ele></ele><time>2025-5-6T16:5:51Z</time></trkpt>
<trkpt lat="48.888565063477" lon="2.8387794494629"><ele></ele><time>2025-5-6T16:5:54Z</time></trkpt>
<trkpt lat="48.888603210449" lon="2.8385801315308"><ele></ele><time>2025-5-6T16:5:57Z</time></trkpt>
<trkpt lat="48.888603210449" lon="2.8385801315308"><ele></ele><time>2025-5-6T16:6:0Z</time></trkpt>
<trkpt lat="48.888648986816" lon="2.8384191989899"><ele></ele><time>2025-5-6T16:6:3Z</time></trkpt>
<trkpt lat="48.888694763184" lon="2.8382906913757"><ele></ele><time>2025-5-6T16:6:6Z</time></trkpt>
<trkpt lat="48.888740539551" lon="2.8381440639496"><ele></ele><time>2025-5-6T16:6:9Z</time></trkpt>
<trkpt lat="48.888740539551" lon="2.8381440639496"><ele></ele><time>2025-5-6T16:6:12Z</time></trkpt>
<trkpt lat="48.888771057129" lon="2.837996006012"><ele></ele><time>2025-5-6T16:6:15Z</time></trkpt>
<trkpt lat="48.888793945312" lon="2.8379156589508"><ele></ele><time>2025-5-6T16:6:18Z</time></trkpt>
<trkpt lat="48.888793945312" lon="2.8379156589508"><ele></ele><time>2025-5-6T16:6:21Z</time></trkpt>
<trkpt lat="48.888832092285" lon="2.8377480506897"><ele></ele><time>2025-5-6T16:6:24Z</time></trkpt>
<trkpt lat="48.888866424561" lon="2.8376474380493"><ele></ele><time>2025-5-6T16:6:27Z</time></trkpt>
<trkpt lat="48.888896942139" lon="2.8375408649445"><ele></ele><time>2025-5-6T16:6:30Z</time></trkpt>
<trkpt lat="48.888931274414" lon="2.8374328613281"><ele></ele><time>2025-5-6T16:6:33Z</time></trkpt>
<trkpt lat="48.888961791992" lon="2.8373112678528"><ele></ele><time>2025-5-6T16:6:36Z</time></trkpt>
<trkpt lat="48.888988494873" lon="2.8371715545654"><ele></ele><time>2025-5-6T16:6:39Z</time></trkpt>
<trkpt lat="48.889019012451" lon="2.8370592594147"><ele></ele><time>2025-5-6T16:6:42Z</time></trkpt>
<trkpt lat="48.889019012451" lon="2.8370592594147"><ele></ele><time>2025-5-6T16:6:45Z</time></trkpt>
<trkpt lat="48.889049530029" lon="2.8369538784027"><ele></ele><time>2025-5-6T16:6:48Z</time></trkpt>
<trkpt lat="48.889087677002" lon="2.8368365764618"><ele></ele><time>2025-5-6T16:6:51Z</time></trkpt>
<trkpt lat="48.889125823975" lon="2.8367002010345"><ele></ele><time>2025-5-6T16:6:54Z</time></trkpt>
<trkpt lat="48.889156341553" lon="2.8365643024445"><ele></ele><time>2025-5-6T16:6:57Z</time></trkpt>
<trkpt lat="48.889190673828" lon="2.8364281654358"><ele></ele><time>2025-5-6T16:7:0Z</time></trkpt>
<trkpt lat="48.889209747314" lon="2.8362958431244"><ele></ele><time>2025-5-6T16:7:3Z</time></trkpt>
<trkpt lat="48.889232635498" lon="2.8361768722534"><ele></ele><time>2025-5-6T16:7:6Z</time></trkpt>
<trkpt lat="48.889266967773" lon="2.836053609848"><ele></ele><time>2025-5-6T16:7:9Z</time></trkpt>
<trkpt lat="48.889266967773" lon="2.836053609848"><ele></ele><time>2025-5-6T16:7:12Z</time></trkpt>
<trkpt lat="48.88928604126" lon="2.8359460830688"><ele></ele><time>2025-5-6T16:7:15Z</time></trkpt>
<trkpt lat="48.889316558838" lon="2.83584856987"><ele></ele><time>2025-5-6T16:7:18Z</time></trkpt>
<trkpt lat="48.889343261719" lon="2.835729598999"><ele></ele><time>2025-5-6T16:7:21Z</time></trkpt>
<trkpt lat="48.889385223389" lon="2.8356359004974"><ele></ele><time>2025-5-6T16:7:24Z</time></trkpt>
<trkpt lat="48.889427185059" lon="2.8355553150177"><ele></ele><time>2025-5-6T16:7:27Z</time></trkpt>
<trkpt lat="48.889457702637" lon="2.8354399204254"><ele></ele><time>2025-5-6T16:7:30Z</time></trkpt>
<trkpt lat="48.889488220215" lon="2.8353102207184"><ele></ele><time>2025-5-6T16:7:33Z</time></trkpt>
<trkpt lat="48.889514923096" lon="2.8351969718933"><ele></ele><time>2025-5-6T16:7:36Z</time></trkpt>
<trkpt lat="48.889514923096" lon="2.8351969718933"><ele></ele><time>2025-5-6T16:7:39Z</time></trkpt>
<trkpt lat="48.889541625977" lon="2.8350820541382"><ele></ele><time>2025-5-6T16:7:42Z</time></trkpt>
<trkpt lat="48.889575958252" lon="2.8349623680115"><ele></ele><time>2025-5-6T16:7:45Z</time></trkpt>
<trkpt lat="48.889614105225" lon="2.8348226547241"><ele></ele><time>2025-5-6T16:7:48Z</time></trkpt>
<trkpt lat="48.889659881592" lon="2.8346819877625"><ele></ele><time>2025-5-6T16:7:51Z</time></trkpt>
<trkpt lat="48.889698028564" lon="2.8345539569855"><ele></ele><time>2025-5-6T16:7:54Z</time></trkpt>
<trkpt lat="48.889709472656" lon="2.834436416626"><ele></ele><time>2025-5-6T16:7:57Z</time></trkpt>
<trkpt lat="48.889709472656" lon="2.834436416626"><ele></ele><time>2025-5-6T16:8:0Z</time></trkpt>
<trkpt lat="48.889717102051" lon="2.8342854976654"><ele></ele><time>2025-5-6T16:8:3Z</time></trkpt>
<trkpt lat="48.889717102051" lon="2.8342854976654"><ele></ele><time>2025-5-6T16:8:6Z</time></trkpt>
<trkpt lat="48.889717102051" lon="2.8342854976654"><ele></ele><time>2025-5-6T16:8:9Z</time></trkpt>
<trkpt lat="48.889709472656" lon="2.834156036377"><ele></ele><time>2025-5-6T16:8:12Z</time></trkpt>
<trkpt lat="48.889709472656" lon="2.834156036377"><ele></ele><time>2025-5-6T16:8:15Z</time></trkpt>
<trkpt lat="48.889709472656" lon="2.834156036377"><ele></ele><time>2025-5-6T16:8:18Z</time></trkpt>
<trkpt lat="48.889778137207" lon="2.8339927196503"><ele></ele><time>2025-5-6T16:8:21Z</time></trkpt>
<trkpt lat="48.889820098877" lon="2.8338778018951"><ele></ele><time>2025-5-6T16:8:24Z</time></trkpt>
<trkpt lat="48.889820098877" lon="2.8338778018951"><ele></ele><time>2025-5-6T16:8:27Z</time></trkpt>
<trkpt lat="48.88985824585" lon="2.8337724208832"><ele></ele><time>2025-5-6T16:8:30Z</time></trkpt>
<trkpt lat="48.889896392822" lon="2.8336727619171"><ele></ele><time>2025-5-6T16:8:33Z</time></trkpt>
<trkpt lat="48.889942169189" lon="2.8335781097412"><ele></ele><time>2025-5-6T16:8:36Z</time></trkpt>
<trkpt lat="48.889942169189" lon="2.8335781097412"><ele></ele><time>2025-5-6T16:8:39Z</time></trkpt>
<trkpt lat="48.889987945557" lon="2.8334808349609"><ele></ele><time>2025-5-6T16:8:42Z</time></trkpt>
<trkpt lat="48.890033721924" lon="2.8333873748779"><ele></ele><time>2025-5-6T16:8:45Z</time></trkpt>
<trkpt lat="48.89009475708" lon="2.8333222866058"><ele></ele><time>2025-5-6T16:8:48Z</time></trkpt>
<trkpt lat="48.89009475708" lon="2.8333222866058"><ele></ele><time>2025-5-6T16:8:51Z</time></trkpt>
<trkpt lat="48.890155792236" lon="2.8332586288452"><ele></ele><time>2025-5-6T16:8:54Z</time></trkpt>
<trkpt lat="48.890216827393" lon="2.8331687450409"><ele></ele><time>2025-5-6T16:8:57Z</time></trkpt>
<trkpt lat="48.89026260376" lon="2.8330597877502"><ele></ele><time>2025-5-6T16:9:0Z</time></trkpt>
<trkpt lat="48.89026260376" lon="2.8330597877502"><ele></ele><time>2025-5-6T16:9:3Z</time></trkpt>
<trkpt lat="48.89030456543" lon="2.8329591751099"><ele></ele><time>2025-5-6T16:9:6Z</time></trkpt>
<trkpt lat="48.890342712402" lon="2.8328733444214"><ele></ele><time>2025-5-6T16:9:9Z</time></trkpt>
<trkpt lat="48.89038848877" lon="2.8327825069427"><ele></ele><time>2025-5-6T16:9:12Z</time></trkpt>
<trkpt lat="48.89038848877" lon="2.8327825069427"><ele></ele><time>2025-5-6T16:9:15Z</time></trkpt>
<trkpt lat="48.890430450439" lon="2.8327023983002"><ele></ele><time>2025-5-6T16:9:18Z</time></trkpt>
<trkpt lat="48.890472412109" lon="2.8326187133789"><ele></ele><time>2025-5-6T16:9:21Z</time></trkpt>
<trkpt lat="48.890472412109" lon="2.8326187133789"><ele></ele><time>2025-5-6T16:9:24Z</time></trkpt>
<trkpt lat="48.890472412109" lon="2.8326187133789"><ele></ele><time>2025-5-6T16:9:27Z</time></trkpt>
<trkpt lat="48.890472412109" lon="2.8326187133789"><ele></ele><time>2025-5-6T16:9:30Z</time></trkpt>
<trkpt lat="48.890510559082" lon="2.8325717449188"><ele></ele><time>2025-5-6T16:9:33Z</time></trkpt>
<trkpt lat="48.890510559082" lon="2.8325717449188"><ele></ele><time>2025-5-6T16:9:36Z</time></trkpt>
<trkpt lat="48.890533447266" lon="2.8324639797211"><ele></ele><time>2025-5-6T16:9:39Z</time></trkpt>
<trkpt lat="48.890533447266" lon="2.8324639797211"><ele></ele><time>2025-5-6T16:9:42Z</time></trkpt>
<trkpt lat="48.890586853027" lon="2.8323392868042"><ele></ele><time>2025-5-6T16:9:45Z</time></trkpt>
<trkpt lat="48.890586853027" lon="2.8323392868042"><ele></ele><time>2025-5-6T16:9:48Z</time></trkpt>
<trkpt lat="48.890651702881" lon="2.832234621048"><ele></ele><time>2025-5-6T16:9:51Z</time></trkpt>
<trkpt lat="48.890689849854" lon="2.832151889801"><ele></ele><time>2025-5-6T16:9:54Z</time></trkpt>
<trkpt lat="48.890735626221" lon="2.8320515155792"><ele></ele><time>2025-5-6T16:9:57Z</time></trkpt>
<trkpt lat="48.890735626221" lon="2.8320515155792"><ele></ele><time>2025-5-6T16:10:0Z</time></trkpt>
<trkpt lat="48.890781402588" lon="2.8319451808929"><ele></ele><time>2025-5-6T16:10:3Z</time></trkpt>
<trkpt lat="48.890838623047" lon="2.8318412303925"><ele></ele><time>2025-5-6T16:10:6Z</time></trkpt>
<trkpt lat="48.890888214111" lon="2.8317363262177"><ele></ele><time>2025-5-6T16:10:9Z</time></trkpt>
<trkpt lat="48.890888214111" lon="2.8317363262177"><ele></ele><time>2025-5-6T16:10:12Z</time></trkpt>
<trkpt lat="48.890930175781" lon="2.8316466808319"><ele></ele><time>2025-5-6T16:10:15Z</time></trkpt>
<trkpt lat="48.890979766846" lon="2.8315508365631"><ele></ele><time>2025-5-6T16:10:18Z</time></trkpt>
<trkpt lat="48.89102935791" lon="2.831458568573"><ele></ele><time>2025-5-6T16:10:21Z</time></trkpt>
<trkpt lat="48.89102935791" lon="2.831458568573"><ele></ele><time>2025-5-6T16:10:24Z</time></trkpt>
<trkpt lat="48.891075134277" lon="2.8313519954681"><ele></ele><time>2025-5-6T16:10:27Z</time></trkpt>
<trkpt lat="48.891128540039" lon="2.8312132358551"><ele></ele><time>2025-5-6T16:10:30Z</time></trkpt>
<trkpt lat="48.891166687012" lon="2.8311228752136"><ele></ele><time>2025-5-6T16:10:33Z</time></trkpt>
<trkpt lat="48.891166687012" lon="2.8311228752136"><ele></ele><time>2025-5-6T16:10:36Z</time></trkpt>
<trkpt lat="48.891208648682" lon="2.8310194015503"><ele></ele><time>2025-5-6T16:10:39Z</time></trkpt>
<trkpt lat="48.891254425049" lon="2.8309254646301"><ele></ele><time>2025-5-6T16:10:42Z</time></trkpt>
<trkpt lat="48.891304016113" lon="2.8308069705963"><ele></ele><time>2025-5-6T16:10:45Z</time></trkpt>
<trkpt lat="48.891304016113" lon="2.8308069705963"><ele></ele><time>2025-5-6T16:10:48Z</time></trkpt>
<trkpt lat="48.891357421875" lon="2.8307023048401"><ele></ele><time>2025-5-6T16:10:51Z</time></trkpt>
<trkpt lat="48.891407012939" lon="2.8306043148041"><ele></ele><time>2025-5-6T16:10:54Z</time></trkpt>
<trkpt lat="48.891460418701" lon="2.8304929733276"><ele></ele><time>2025-5-6T16:10:57Z</time></trkpt>
<trkpt lat="48.891460418701" lon="2.8304929733276"><ele></ele><time>2025-5-6T16:11:0Z</time></trkpt>
<trkpt lat="48.891502380371" lon="2.8303933143616"><ele></ele><time>2025-5-6T16:11:3Z</time></trkpt>
<trkpt lat="48.891544342041" lon="2.8302817344666"><ele></ele><time>2025-5-6T16:11:6Z</time></trkpt>
<trkpt lat="48.891590118408" lon="2.8301575183868"><ele></ele><time>2025-5-6T16:11:9Z</time></trkpt>
<trkpt lat="48.891590118408" lon="2.8301575183868"><ele></ele><time>2025-5-6T16:11:12Z</time></trkpt>
<trkpt lat="48.891628265381" lon="2.8300642967224"><ele></ele><time>2025-5-6T16:11:15Z</time></trkpt>
<trkpt lat="48.891681671143" lon="2.8299670219421"><ele></ele><time>2025-5-6T16:11:18Z</time></trkpt>
<trkpt lat="48.891738891602" lon="2.829873085022"><ele></ele><time>2025-5-6T16:11:21Z</time></trkpt>
<trkpt lat="48.891738891602" lon="2.829873085022"><ele></ele><time>2025-5-6T16:11:24Z</time></trkpt>
<trkpt lat="48.891784667969" lon="2.8297872543335"><ele></ele><time>2025-5-6T16:11:27Z</time></trkpt>
<trkpt lat="48.89183807373" lon="2.8297011852264"><ele></ele><time>2025-5-6T16:11:30Z</time></trkpt>
<trkpt lat="48.8918800354" lon="2.8296051025391"><ele></ele><time>2025-5-6T16:11:33Z</time></trkpt>
<trkpt lat="48.891925811768" lon="2.8295052051544"><ele></ele><time>2025-5-6T16:11:36Z</time></trkpt>
<trkpt lat="48.89196395874" lon="2.8294084072113"><ele></ele><time>2025-5-6T16:11:39Z</time></trkpt>
<trkpt lat="48.89196395874" lon="2.8294084072113"><ele></ele><time>2025-5-6T16:11:42Z</time></trkpt>
<trkpt lat="48.89200592041" lon="2.8293097019196"><ele></ele><time>2025-5-6T16:11:45Z</time></trkpt>
<trkpt lat="48.892040252686" lon="2.8292181491852"><ele></ele><time>2025-5-6T16:11:48Z</time></trkpt>
<trkpt lat="48.89208984375" lon="2.8291137218475"><ele></ele><time>2025-5-6T16:11:51Z</time></trkpt>
<trkpt lat="48.89208984375" lon="2.8291137218475"><ele></ele><time>2025-5-6T16:11:54Z</time></trkpt>
<trkpt lat="48.892147064209" lon="2.8289909362793"><ele></ele><time>2025-5-6T16:11:57Z</time></trkpt>
<trkpt lat="48.892200469971" lon="2.8288888931274"><ele></ele><time>2025-5-6T16:12:0Z</time></trkpt>
<trkpt lat="48.892253875732" lon="2.8287973403931"><ele></ele><time>2025-5-6T16:12:3Z</time></trkpt>
<trkpt lat="48.892253875732" lon="2.8287973403931"><ele></ele><time>2025-5-6T16:12:6Z</time></trkpt>
<trkpt lat="48.892284393311" lon="2.8287036418915"><ele></ele><time>2025-5-6T16:12:9Z</time></trkpt>
<trkpt lat="48.892322540283" lon="2.8286099433899"><ele></ele><time>2025-5-6T16:12:12Z</time></trkpt>
<trkpt lat="48.892364501953" lon="2.8285250663757"><ele></ele><time>2025-5-6T16:12:15Z</time></trkpt>
<trkpt lat="48.892364501953" lon="2.8285250663757"><ele></ele><time>2025-5-6T16:12:18Z</time></trkpt>
<trkpt lat="48.892414093018" lon="2.8284382820129"><ele></ele><time>2025-5-6T16:12:21Z</time></trkpt>
<trkpt lat="48.892448425293" lon="2.8283643722534"><ele></ele><time>2025-5-6T16:12:24Z</time></trkpt>
<trkpt lat="48.892448425293" lon="2.8283643722534"><ele></ele><time>2025-5-6T16:12:27Z</time></trkpt>
<trkpt lat="48.892448425293" lon="2.8283643722534"><ele></ele><time>2025-5-6T16:12:30Z</time></trkpt>
</trkseg></trk></gpx>